Time;durP1;ratioP1;P1;durP2;ratioP2;P2;SDS_P1;SDS_P2;PMS_P1;PMS_P2;Temp;Humidity;BMP_temperature;BMP_pressure;BME280_temperature;BME280_humidity;BME280_pressure;Samples;Min_cycle;Max_cycle;Signal;HPM_P1;HPM_P2
2022/09/16 00:00:23;;;;;;;8.40;7.15;;;;;;;21.99;100.00;99381.69;5090424;28;20032;-73
2022/09/16 00:02:52;;;;;;;10.98;6.20;;;;;;;22.54;100.00;99403.69;5091533;28;20032;-73
2022/09/16 00:05:18;;;;;;;8.25;6.95;;;;;;;22.41;100.00;99383.22;5090171;28;20470;-73
2022/09/16 00:07:43;;;;;;;7.88;6.40;;;;;;;22.09;100.00;99395.50;5092161;28;20024;-73
2022/09/16 00:10:09;;;;;;;10.15;7.10;;;;;;;21.61;100.00;99365.91;5091077;28;20485;-73
2022/09/16 00:12:34;;;;;;;9.75;7.15;;;;;;;21.71;100.00;99371.19;5089892;28;20031;-77
2022/09/16 00:15:00;;;;;;;12.70;7.45;;;;;;;21.83;100.00;99370.19;5091594;28;20780;-72
2022/09/16 00:17:25;;;;;;;9.73;7.35;;;;;;;21.63;100.00;99371.78;5089937;28;20110;-72
2022/09/16 00:19:51;;;;;;;10.45;7.18;;;;;;;21.74;100.00;99348.44;5089371;28;20051;-72
2022/09/16 00:22:17;;;;;;;8.07;6.82;;;;;;;22.29;100.00;99384.28;5089492;28;20070;-75
2022/09/16 00:24:42;;;;;;;10.10;6.85;;;;;;;21.80;100.00;99401.44;5090919;28;20413;-77
2022/09/16 00:27:09;;;;;;;9.20;6.68;;;;;;;22.06;100.00;99400.94;5091037;28;20032;-72
2022/09/16 00:29:34;;;;;;;9.32;6.70;;;;;;;21.84;100.00;99362.28;5091440;28;20027;-72
2022/09/16 00:32:00;;;;;;;8.70;6.88;;;;;;;21.87;100.00;99389.69;5090701;28;20050;-74
2022/09/16 00:34:25;;;;;;;7.63;6.85;;;;;;;21.40;100.00;99373.72;5091155;28;20046;-74
2022/09/16 00:36:50;;;;;;;8.10;7.30;;;;;;;21.73;100.00;99375.25;5090892;28;20413;-75
2022/09/16 00:39:16;;;;;;;10.52;7.25;;;;;;;21.74;100.00;99383.84;5089270;28;20085;-72
2022/09/16 00:41:42;;;;;;;8.00;7.20;;;;;;;21.58;100.00;99386.88;5091062;28;20141;-73
2022/09/16 00:44:44;;;;;;;12.35;7.55;;;;;;;22.13;100.00;99383.94;5090853;28;20031;-73
2022/09/16 00:47:12;;;;;;;9.20;7.35;;;;;;;21.37;100.00;99344.69;5090288;28;20513;-72
2022/09/16 00:49:37;;;;;;;8.82;7.35;;;;;;;21.44;100.00;99357.00;5089590;28;20024;-77
2022/09/16 00:52:05;;;;;;;9.43;7.78;;;;;;;21.45;100.00;99386.28;5091183;28;20032;-73
2022/09/16 00:54:34;;;;;;;11.93;8.10;;;;;;;21.13;100.00;99372.53;5091085;28;20032;-74
2022/09/16 00:57:01;;;;;;;8.75;7.30;;;;;;;20.93;100.00;99355.19;5091029;28;20028;-77
2022/09/16 00:59:37;;;;;;;8.55;7.63;;;;;;;21.25;100.00;99385.28;5090800;28;20024;-73
2022/09/16 01:02:08;;;;;;;10.77;7.88;;;;;;;21.16;100.00;99356.78;5091314;28;20028;-73
2022/09/16 01:04:39;;;;;;;8.23;7.40;;;;;;;21.07;100.00;99347.19;5090766;28;20103;-73
2022/09/16 01:07:05;;;;;;;10.57;7.55;;;;;;;20.98;100.00;99361.63;5089454;28;20086;-71
2022/09/16 01:09:30;;;;;;;8.35;7.55;;;;;;;21.03;100.00;99389.75;5090452;28;20028;-73
2022/09/16 01:11:56;;;;;;;12.70;8.07;;;;;;;20.93;100.00;99388.81;5089136;28;20028;-71
2022/09/16 01:17:18;;;;;;;10.32;8.60;;;;;;;21.14;100.00;99400.84;5091113;28;20121;-73
2022/09/16 01:20:03;;;;;;;10.13;8.15;;;;;;;20.89;100.00;99397.75;5090225;28;20043;-73
2022/09/16 01:22:44;;;;;;;11.88;7.38;;;;;;;21.01;100.00;99404.53;5090840;28;20398;-73
2022/09/16 01:26:05;;;;;;;8.98;7.75;;;;;;;20.95;100.00;99399.84;5089302;28;20024;-76
2022/09/16 01:28:58;;;;;;;12.07;8.18;;;;;;;21.11;100.00;99405.47;5089425;28;20036;-73
2022/09/16 01:31:32;;;;;;;11.32;7.97;;;;;;;20.57;100.00;99408.84;5090483;28;20036;-74
2022/09/16 01:34:14;;;;;;;14.13;8.32;;;;;;;20.74;100.00;99358.41;5090358;28;20113;-72
2022/09/16 01:36:54;;;;;;;9.82;8.70;;;;;;;20.48;100.00;99355.31;5089218;28;20035;-73
2022/09/16 01:40:14;;;;;;;10.68;8.80;;;;;;;21.05;100.00;99401.63;5090295;28;20024;-73
2022/09/16 01:42:46;;;;;;;9.30;8.18;;;;;;;21.14;100.00;99406.03;5028388;28;20037;-72
2022/09/16 01:45:25;;;;;;;8.48;7.63;;;;;;;20.76;100.00;99376.41;5079085;28;20090;-74
2022/09/16 01:48:02;;;;;;;9.73;7.57;;;;;;;20.84;100.00;99368.88;5093718;28;20110;-73
2022/09/16 01:50:55;;;;;;;10.63;7.93;;;;;;;20.97;100.00;99405.72;5093858;28;20039;-73
2022/09/16 01:53:25;;;;;;;11.75;8.70;;;;;;;20.86;100.00;99398.78;5093633;28;20028;-73
2022/09/16 01:56:04;;;;;;;9.10;8.20;;;;;;;20.30;100.00;99372.25;5093737;28;20032;-72
2022/09/16 01:58:39;;;;;;;8.98;8.02;;;;;;;20.58;100.00;99394.19;5092111;28;20024;-74
2022/09/16 02:01:11;;;;;;;15.27;8.50;;;;;;;20.08;100.00;99377.41;5093882;28;20052;-74
2022/09/16 02:03:40;;;;;;;11.60;8.60;;;;;;;20.73;100.00;99403.31;5093609;28;20031;-73
2022/09/16 02:06:17;;;;;;;10.93;8.90;;;;;;;20.50;100.00;99410.25;5092166;28;20039;-73
2022/09/16 02:08:48;;;;;;;10.45;8.25;;;;;;;21.03;100.00;99413.00;5093469;28;20032;-75
2022/09/16 02:11:15;;;;;;;;;;;;;;;20.66;100.00;99410.72;5093812;28;20036;-74
2022/09/16 02:13:46;;;;;;;10.50;7.78;;;;;;;20.41;100.00;99416.16;5093912;28;20301;-74
2022/09/16 02:16:19;;;;;;;11.43;8.27;;;;;;;20.69;100.00;99381.25;5092258;28;20036;-73
2022/09/16 02:18:51;;;;;;;11.65;8.68;;;;;;;20.49;100.00;99413.78;5092146;28;20039;-74
2022/09/16 02:21:20;;;;;;;12.88;8.02;;;;;;;20.55;100.00;99379.75;5093406;28;20023;-74
2022/09/16 02:24:02;;;;;;;9.57;8.55;;;;;;;20.77;100.00;99412.47;5091956;28;20063;-74
2022/09/16 02:26:32;;;;;;;10.60;8.57;;;;;;;20.48;100.00;99396.66;5094057;28;20051;-73
2022/09/16 02:28:59;;;;;;;11.95;8.63;;;;;;;20.38;100.00;99424.13;5093956;28;20486;-73
2022/09/16 02:31:31;;;;;;;13.07;9.00;;;;;;;20.80;100.00;99426.91;5092123;28;20482;-73
2022/09/16 02:33:59;;;;;;;;;;;;;;;20.38;100.00;99425.91;5093877;28;20532;-74
2022/09/16 02:36:26;;;;;;;14.23;8.63;;;;;;;20.30;100.00;99413.56;5093390;28;20426;-74
2022/09/16 02:38:59;;;;;;;12.68;8.82;;;;;;;20.29;100.00;99404.19;5093145;28;20498;-75
2022/09/16 02:41:25;;;;;;;12.63;8.80;;;;;;;20.16;100.00;99380.22;5092242;28;20408;-74
2022/09/16 02:43:50;;;;;;;12.32;9.52;;;;;;;19.90;100.00;99409.78;5091771;28;20122;-73
2022/09/16 02:46:25;;;;;;;11.57;9.05;;;;;;;20.10;100.00;99408.25;5092845;28;20028;-74
2022/09/16 02:49:17;;;;;;;9.95;8.68;;;;;;;20.28;100.00;99415.44;5092854;28;20067;-74
2022/09/16 02:52:01;;;;;;;14.55;9.40;;;;;;;20.03;100.00;99381.25;5092958;28;20024;-74
2022/09/16 02:54:41;;;;;;;10.07;8.85;;;;;;;19.95;100.00;99396.53;5091694;28;20052;-74
2022/09/16 02:57:08;;;;;;;14.38;9.52;;;;;;;20.29;100.00;99409.34;5092668;28;20055;-73
2022/09/16 02:59:34;;;;;;;11.63;9.55;;;;;;;19.63;100.00;99362.84;5092402;28;20027;-72
2022/09/16 03:02:00;;;;;;;14.13;9.82;;;;;;;19.84;100.00;99433.44;5092218;28;20028;-72
2022/09/16 03:04:26;;;;;;;12.65;10.05;;;;;;;19.99;100.00;99421.97;5092369;28;20119;-73
2022/09/16 03:06:52;;;;;;;11.43;10.07;;;;;;;19.61;100.00;99427.41;5092487;28;20115;-72
2022/09/16 03:09:17;;;;;;;11.25;9.30;;;;;;;19.67;100.00;99400.31;5092065;28;20028;-76
2022/09/16 03:12:17;;;;;;;11.65;9.38;;;;;;;19.93;100.00;99437.13;5092111;28;20414;-72
2022/09/16 03:15:01;;;;;;;14.25;10.40;;;;;;;20.00;100.00;99421.03;5092474;28;20024;-73
2022/09/16 03:17:45;;;;;;;14.38;10.55;;;;;;;20.38;100.00;99413.78;5091989;28;20024;-75
2022/09/16 03:20:32;;;;;;;13.25;11.00;;;;;;;20.55;100.00;99415.06;5091362;28;20597;-72
2022/09/16 03:23:19;;;;;;;17.67;11.05;;;;;;;20.23;100.00;99433.06;5092147;28;20043;-72
2022/09/16 03:26:22;;;;;;;12.18;10.98;;;;;;;20.11;100.00;99430.53;5090789;28;20032;-74
2022/09/16 03:29:00;;;;;;;13.15;10.43;;;;;;;19.76;100.00;99426.28;5089648;28;20123;-72
2022/09/16 03:31:28;;;;;;;15.00;11.73;;;;;;;19.55;100.00;99416.75;5091513;28;20070;-71
2022/09/16 03:34:13;;;;;;;14.90;12.63;;;;;;;19.74;100.00;99383.47;5090403;28;20063;-72
2022/09/16 03:36:44;;;;;;;20.08;12.70;;;;;;;19.75;100.00;99419.47;5090993;28;20180;-71
2022/09/16 03:39:11;;;;;;;19.05;11.77;;;;;;;19.72;100.00;99386.19;5091527;28;20032;-72
2022/09/16 03:41:38;;;;;;;14.48;12.07;;;;;;;19.35;100.00;99374.34;5090262;28;20036;-74
2022/09/16 03:44:03;;;;;;;20.13;12.20;;;;;;;19.55;100.00;99378.06;5091427;28;20024;-73
2022/09/16 03:46:29;;;;;;;13.40;11.60;;;;;;;19.70;100.00;99369.16;5091668;28;20036;-72
2022/09/16 03:48:56;;;;;;;18.70;12.43;;;;;;;19.69;100.00;99373.50;5090305;28;20028;-75
2022/09/16 03:51:22;;;;;;;19.40;11.65;;;;;;;19.41;100.00;99358.44;5090485;28;20028;-73
2022/09/16 03:53:49;;;;;;;20.98;11.43;;;;;;;19.65;100.00;99417.69;5091655;28;20084;-73
2022/09/16 03:56:17;;;;;;;18.88;12.57;;;;;;;19.75;100.00;99413.47;5092195;28;20032;-72
2022/09/16 03:58:43;;;;;;;13.25;11.23;;;;;;;19.22;100.00;99386.47;5089664;28;20177;-74
2022/09/16 04:01:09;;;;;;;18.63;10.93;;;;;;;19.85;100.00;99404.94;5091545;28;20114;-72
2022/09/16 04:03:36;;;;;;;12.77;11.07;;;;;;;19.45;100.00;99392.56;5090168;28;20119;-73
2022/09/16 04:06:02;;;;;;;14.20;10.98;;;;;;;19.66;100.00;99427.06;5089503;28;20637;-73
2022/09/16 04:08:28;;;;;;;16.80;10.60;;;;;;;19.86;100.00;99400.63;5083810;28;20076;-74
2022/09/16 04:10:59;;;;;;;15.70;10.98;;;;;;;19.73;100.00;99415.34;5072077;28;20126;-74
2022/09/16 04:13:25;;;;;;;14.70;10.60;;;;;;;19.65;100.00;99376.41;5070801;28;20462;-75
2022/09/16 04:15:51;;;;;;;16.17;11.20;;;;;;;19.71;100.00;99417.22;5071145;28;20024;-74
2022/09/16 04:18:17;;;;;;;12.98;9.73;;;;;;;19.74;100.00;99411.84;5070915;28;20060;-73
2022/09/16 04:20:43;;;;;;;18.17;10.70;;;;;;;20.19;100.00;99386.94;5069869;28;20032;-73
2022/09/16 04:23:08;;;;;;;16.83;10.10;;;;;;;19.68;100.00;99410.56;5069727;28;20451;-74
2022/09/16 04:25:34;;;;;;;14.27;10.13;;;;;;;19.44;100.00;99408.97;5086628;28;20060;-74
2022/09/16 04:28:00;;;;;;;21.23;11.00;;;;;;;19.45;100.00;99408.84;5077848;28;20047;-74
2022/09/16 04:30:25;;;;;;;16.13;9.88;;;;;;;20.88;100.00;99409.03;5091700;28;20032;-75
2022/09/16 04:32:55;;;;;;;19.98;11.35;;;;;;;20.09;100.00;99397.09;5091364;28;20028;-73
2022/09/16 04:35:22;;;;;;;19.92;11.30;;;;;;;19.80;100.00;99440.59;5090732;28;20054;-74
2022/09/16 04:37:48;;;;;;;16.92;10.70;;;;;;;19.76;100.00;99415.13;5091049;28;20031;-73
2022/09/16 04:40:14;;;;;;;14.55;11.40;;;;;;;19.96;100.00;99417.06;5090804;28;20043;-73
2022/09/16 04:42:39;;;;;;;18.50;11.30;;;;;;;19.84;100.00;99407.66;5091382;28;20148;-74
2022/09/16 04:45:05;;;;;;;17.10;10.85;;;;;;;19.90;100.00;99407.19;5090579;28;20052;-74
2022/09/16 04:47:31;;;;;;;15.80;10.40;;;;;;;20.16;100.00;99444.78;5089533;28;20115;-74
2022/09/16 04:49:57;;;;;;;17.95;10.38;;;;;;;19.95;100.00;99407.66;5090856;28;20474;-75
2022/09/16 04:52:22;;;;;;;23.90;12.23;;;;;;;19.60;100.00;99406.91;5090834;28;20032;-75
2022/09/16 04:54:48;;;;;;;20.15;12.30;;;;;;;19.47;100.00;99419.84;5090715;28;20024;-74
2022/09/16 04:57:13;;;;;;;28.27;12.93;;;;;;;19.88;100.00;99437.44;5090669;28;20468;-75
2022/09/16 04:59:39;;;;;;;23.17;12.48;;;;;;;19.98;100.00;99448.72;5090286;28;20433;-74
2022/09/16 05:02:04;;;;;;;20.35;12.20;;;;;;;20.04;100.00;99455.19;5090922;28;20491;-75
2022/09/16 05:04:29;;;;;;;15.93;11.75;;;;;;;20.54;100.00;99457.38;5091592;28;20024;-74
2022/09/16 05:06:55;;;;;;;18.65;13.25;;;;;;;20.21;100.00;99434.09;5091313;28;20383;-75
2022/09/16 05:09:21;;;;;;;17.42;11.88;;;;;;;20.53;100.00;99424.72;5091501;28;20024;-75
2022/09/16 05:11:47;;;;;;;18.33;11.00;;;;;;;20.25;100.00;99454.41;5091036;28;20165;-75
2022/09/16 05:14:15;;;;;;;20.83;11.00;;;;;;;20.71;100.00;99462.03;5091285;28;20539;-75
2022/09/16 05:16:41;;;;;;;16.42;11.77;;;;;;;20.74;100.00;99459.19;5091041;28;20024;-73
2022/09/16 05:19:07;;;;;;;21.48;12.55;;;;;;;20.33;100.00;99436.59;5093687;28;20040;-73
2022/09/16 05:21:35;;;;;;;27.42;13.38;;;;;;;21.04;100.00;99432.72;5093904;28;20063;-74
2022/09/16 05:24:03;;;;;;;23.17;12.52;;;;;;;21.43;100.00;99440.69;5094589;28;20027;-75
2022/09/16 05:26:30;;;;;;;22.77;11.85;;;;;;;21.74;100.00;99458.91;5095172;28;20031;-75
2022/09/16 05:29:00;;;;;;;22.30;12.38;;;;;;;22.03;100.00;99465.94;5094380;28;20055;-75
2022/09/16 05:31:27;;;;;;;19.27;11.13;;;;;;;21.93;100.00;99446.09;5093095;28;20020;-74
2022/09/16 05:34:00;;;;;;;18.73;10.40;;;;;;;21.98;100.00;99467.28;5094754;28;20066;-74
2022/09/16 05:36:29;;;;;;;15.40;10.20;;;;;;;22.15;100.00;99459.72;5093256;28;20494;-74
2022/09/16 05:38:55;;;;;;;18.77;10.60;;;;;;;22.29;100.00;99445.63;5094842;28;20496;-74
2022/09/16 05:41:21;;;;;;;14.60;10.73;;;;;;;22.21;100.00;99450.63;5092816;28;20032;-74
2022/09/16 05:43:47;;;;;;;22.60;11.20;;;;;;;22.26;100.00;99431.13;5093733;28;20035;-74
2022/09/16 05:46:17;;;;;;;21.08;10.60;;;;;;;22.35;100.00;99422.59;5094559;28;20067;-73
2022/09/16 05:48:43;;;;;;;18.42;10.32;;;;;;;22.61;100.00;99419.56;5092919;28;20036;-73
2022/09/16 05:51:13;;;;;;;22.33;9.15;;;;;;;22.97;100.00;99434.53;5093654;28;20039;-74
2022/09/16 05:53:38;;;;;;;17.63;9.43;;;;;;;23.03;100.00;99436.59;5094010;28;20028;-74
2022/09/16 05:56:05;;;;;;;14.13;8.57;;;;;;;22.81;100.00;99445.41;5094174;28;20028;-74
2022/09/16 05:58:32;;;;;;;15.93;8.13;;;;;;;23.00;100.00;99458.41;5093778;28;20143;-74
2022/09/16 06:01:18;;;;;;;25.23;8.43;;;;;;;23.20;100.00;99423.75;5093882;28;20053;-75
2022/09/16 06:03:45;;;;;;;28.77;9.35;;;;;;;23.85;100.00;99437.78;5093078;28;20123;-74
2022/09/16 06:06:38;;;;;;;17.13;8.43;;;;;;;23.48;100.00;99410.94;5094011;28;20028;-74
2022/09/16 06:09:12;;;;;;;13.57;7.70;;;;;;;23.19;100.00;99423.91;5094020;28;20035;-75
2022/09/16 06:11:40;;;;;;;15.90;7.72;;;;;;;23.11;100.00;99418.56;5092792;28;20051;-74
2022/09/16 06:14:07;;;;;;;18.55;8.00;;;;;;;23.15;100.00;99445.88;5093663;28;20059;-74
2022/09/16 06:16:32;;;;;;;18.83;7.90;;;;;;;23.20;100.00;99446.28;5093760;28;20039;-74
2022/09/16 06:19:04;;;;;;;21.60;8.05;;;;;;;22.98;100.00;99442.16;5092324;28;20048;-75
2022/09/16 06:21:29;;;;;;;23.45;8.25;;;;;;;22.92;100.00;99403.81;5093470;28;20512;-74
2022/09/16 06:23:55;;;;;;;23.25;7.55;;;;;;;22.93;100.00;99402.88;5093417;28;20025;-74
2022/09/16 06:26:23;;;;;;;17.27;7.57;;;;;;;22.74;100.00;99378.69;5092282;28;20039;-75
2022/09/16 06:28:50;;;;;;;13.48;7.30;;;;;;;23.40;100.00;99414.22;5091857;28;20032;-73
2022/09/16 06:31:20;;;;;;;22.25;7.93;;;;;;;23.51;100.00;99415.88;5093344;28;20020;-74
2022/09/16 06:33:46;;;;;;;17.70;7.78;;;;;;;24.25;100.00;99447.97;5093159;28;20105;-76
2022/09/16 06:36:16;;;;;;;11.77;8.88;;;;;;;24.36;100.00;99445.19;5093613;28;20028;-75
2022/09/16 06:38:43;;;;;;;15.10;9.57;;;;;;;24.11;100.00;99425.06;5093586;28;20028;-76
2022/09/16 06:41:10;;;;;;;13.68;9.02;;;;;;;23.73;100.00;99439.72;5093048;28;20305;-76
2022/09/16 06:43:36;;;;;;;13.27;8.77;;;;;;;24.46;100.00;99440.78;5093520;28;20032;-75
2022/09/16 06:46:04;;;;;;;13.50;7.35;;;;;;;24.20;100.00;99460.56;5091829;28;20131;-74
2022/09/16 06:48:32;;;;;;;9.90;6.88;;;;;;;24.08;100.00;99455.56;5092799;28;20040;-75
2022/09/16 06:51:04;;;;;;;12.32;6.60;;;;;;;24.86;100.00;99446.47;5109072;28;20028;-75
2022/09/16 06:53:31;;;;;;;12.43;5.50;;;;;;;25.02;100.00;99412.81;5093360;28;20028;-74
2022/09/16 06:56:05;;;;;;;12.50;5.18;;;;;;;25.18;100.00;99444.19;5093459;28;20093;-75
2022/09/16 06:58:32;;;;;;;7.88;4.97;;;;;;;25.50;100.00;99438.47;5093293;28;20478;-75
2022/09/16 07:00:58;;;;;;;8.27;4.95;;;;;;;25.84;100.00;99441.16;5092866;28;20039;-76
2022/09/16 07:03:24;;;;;;;6.53;5.05;;;;;;;26.00;100.00;99444.72;5093576;28;20028;-75
2022/09/16 07:06:02;;;;;;;9.57;5.18;;;;;;;25.91;100.00;99423.97;5093608;28;20055;-75
2022/09/16 07:08:32;;;;;;;11.07;5.53;;;;;;;26.39;100.00;99447.72;5092192;28;20031;-75
2022/09/16 07:11:03;;;;;;;11.82;5.15;;;;;;;26.23;100.00;99442.41;5093560;28;20028;-75
2022/09/16 07:13:29;;;;;;;10.70;5.30;;;;;;;25.82;100.00;99411.84;5092135;28;20085;-75
2022/09/16 07:15:59;;;;;;;11.35;5.35;;;;;;;26.80;100.00;99439.06;5092686;28;20067;-74
2022/09/16 07:18:25;;;;;;;9.70;4.95;;;;;;;26.52;100.00;99440.28;5093251;28;20063;-77
2022/09/16 07:20:50;;;;;;;9.90;4.82;;;;;;;26.76;100.00;99426.53;5092655;28;20036;-74
2022/09/16 07:23:16;;;;;;;7.82;4.95;;;;;;;27.33;100.00;99454.41;5092461;28;20024;-73
2022/09/16 07:25:41;;;;;;;8.48;4.45;;;;;;;26.82;100.00;99424.06;5091091;28;20443;-74
2022/09/16 07:28:06;;;;;;;8.15;4.50;;;;;;;27.12;100.00;99427.88;5092338;28;20446;-73
2022/09/16 07:30:33;;;;;;;7.57;4.50;;;;;;;27.36;100.00;99454.06;5092567;28;20153;-74
2022/09/16 07:32:59;;;;;;;9.00;4.30;;;;;;;27.77;100.00;99445.22;5090889;28;20028;-74
2022/09/16 07:35:24;;;;;;;4.63;4.07;;;;;;;27.58;100.00;99453.41;5091929;28;20572;-74
2022/09/16 07:37:50;;;;;;;9.48;4.90;;;;;;;27.50;100.00;99418.63;5092211;28;20085;-73
2022/09/16 07:40:15;;;;;;;6.88;4.43;;;;;;;27.28;100.00;99413.06;5091293;28;20036;-75
2022/09/16 07:42:41;;;;;;;13.20;4.93;;;;;;;27.12;100.00;99413.03;5092062;28;20028;-74
2022/09/16 07:45:07;;;;;;;11.85;4.55;;;;;;;27.72;100.00;99407.50;5092239;28;20028;-74
2022/09/16 07:47:33;;;;;;;9.20;4.88;;;;;;;27.31;100.00;99433.63;5091196;28;20532;-74
2022/09/16 07:49:59;;;;;;;8.02;4.82;;;;;;;28.19;100.00;99452.84;5092067;28;20036;-75
2022/09/16 07:52:28;;;;;;;10.32;4.40;;;;;;;27.10;100.00;99420.22;5091570;28;20039;-74
2022/09/16 07:54:57;;;;;;;10.18;5.03;;;;;;;28.07;100.00;99436.72;5090655;28;20497;-75
2022/09/16 07:57:23;;;;;;;6.20;4.65;;;;;;;29.07;100.00;99426.31;5091317;28;20115;-74
2022/09/16 07:59:49;;;;;;;9.52;4.97;;;;;;;28.75;100.00;99444.81;5091647;28;20387;-72
2022/09/16 08:02:14;;;;;;;12.80;5.25;;;;;;;28.86;100.00;99439.19;5091720;28;20028;-74
2022/09/16 08:04:40;;;;;;;9.02;4.97;;;;;;;28.97;100.00;99417.03;5091625;28;20047;-76
2022/09/16 08:07:05;;;;;;;7.78;4.57;;;;;;;29.16;100.00;99449.84;5091772;28;20114;-75
2022/09/16 08:09:31;;;;;;;10.20;4.80;;;;;;;28.96;100.00;99412.81;5091816;28;20028;-75
2022/09/16 08:11:57;;;;;;;11.25;5.07;;;;;;;29.24;100.00;99428.84;5091288;28;20032;-74
2022/09/16 08:14:23;;;;;;;9.10;4.78;;;;;;;29.48;100.00;99432.06;5091378;28;20100;-74
2022/09/16 08:16:51;;;;;;;13.98;4.72;;;;;;;29.86;100.00;99422.41;5091251;28;20452;-75
2022/09/16 08:19:18;;;;;;;9.73;4.80;;;;;;;29.50;100.00;99397.81;5090909;28;20048;-74
2022/09/16 08:21:43;;;;;;;7.00;4.78;;;;;;;29.74;100.00;99419.41;5091691;28;20024;-74
2022/09/16 08:24:09;;;;;;;14.27;5.30;;;;;;;29.60;100.00;99411.47;5090254;28;20214;-75
2022/09/16 08:26:35;;;;;;;9.80;4.80;;;;;;;29.87;100.00;99416.19;5091036;28;20087;-75
2022/09/16 08:29:00;;;;;;;7.70;4.70;;;;;;;30.68;100.00;99422.09;5091417;28;20028;-75
2022/09/16 08:31:26;;;;;;;9.82;4.60;;;;;;;29.77;100.00;99421.66;5091198;28;20062;-74
2022/09/16 08:33:52;;;;;;;9.73;4.88;;;;;;;30.34;100.00;99413.22;5090183;28;20028;-75
2022/09/16 08:36:22;;;;;;;9.38;4.82;;;;;;;30.52;100.00;99403.13;5091036;28;20041;-75
2022/09/16 08:38:50;;;;;;;6.23;4.13;;;;;;;30.44;100.00;99371.75;5089870;28;20108;-74
2022/09/16 08:41:21;;;;;;;9.40;4.35;;;;;;;30.67;99.46;99406.53;5091072;28;20131;-74
2022/09/16 08:44:05;;;;;;;11.00;4.72;;;;;;;31.33;92.66;99403.59;5089854;28;20024;-74
2022/09/16 08:46:56;;;;;;;9.48;4.30;;;;;;;30.77;96.07;99396.53;5090644;28;20032;-74
2022/09/16 08:49:37;;;;;;;13.13;4.43;;;;;;;31.13;96.49;99347.41;5089187;28;20024;-75
2022/09/16 08:52:28;;;;;;;8.15;4.57;;;;;;;30.53;98.89;99396.88;5091968;28;20034;-74
2022/09/16 08:55:14;;;;;;;;;;;;;;;31.41;87.01;99389.53;5093929;28;20146;-73
2022/09/16 08:57:51;;;;;;;14.65;4.55;;;;;;;31.08;91.35;99386.56;5094347;28;19914;-74
2022/09/16 09:00:18;;;;;;;21.58;4.70;;;;;;;31.54;95.30;99394.88;5094923;28;20032;-74
2022/09/16 09:03:01;;;;;;;13.82;4.30;;;;;;;32.04;82.90;99392.00;5094925;28;20111;-74
2022/09/16 09:05:42;;;;;;;14.18;4.32;;;;;;;32.14;83.90;99389.81;5095346;28;20043;-74
2022/09/16 09:08:07;;;;;;;15.57;4.35;;;;;;;31.95;79.29;99387.09;5095185;28;20028;-73
2022/09/16 09:10:50;;;;;;;9.35;4.40;;;;;;;32.07;85.54;99390.78;5093894;28;20055;-74
2022/09/16 09:13:24;;;;;;;17.25;3.97;;;;;;;30.60;76.00;99388.06;5095055;28;20490;-74
2022/09/16 09:15:59;;;;;;;10.15;4.43;;;;;;;32.14;74.48;99349.50;5095218;28;20028;-73
2022/09/16 09:18:44;;;;;;;13.30;4.50;;;;;;;32.09;70.97;99355.34;5094920;28;20086;-73
2022/09/16 09:21:21;;;;;;;15.27;4.60;;;;;;;31.24;71.52;99377.59;5095176;28;20035;-72
2022/09/16 09:24:15;;;;;;;13.95;4.50;;;;;;;31.25;71.33;99360.84;5093478;28;20064;-72
2022/09/16 09:26:47;;;;;;;13.10;4.13;;;;;;;31.90;71.10;99369.22;5094863;28;20063;-73
2022/09/16 09:29:41;;;;;;;11.55;4.43;;;;;;;32.54;76.66;99353.13;5093472;28;20458;-76
2022/09/16 09:32:20;;;;;;;10.82;4.25;;;;;;;31.92;70.99;99367.22;5094368;28;20414;-69
2022/09/16 09:35:29;;;;;;;10.60;4.00;;;;;;;33.43;69.11;99355.25;5094496;28;20039;-72
2022/09/16 09:38:17;;;;;;;12.90;4.72;;;;;;;33.17;62.35;99345.53;5094193;28;20027;-71
2022/09/16 09:41:03;;;;;;;14.13;4.57;;;;;;;32.84;59.29;99342.03;5085459;28;20062;-72
2022/09/16 09:43:31;;;;;;;13.60;4.75;;;;;;;33.56;61.98;99331.53;5093984;28;20028;-71
2022/09/16 09:46:23;;;;;;;10.35;4.85;;;;;;;33.41;61.56;99330.09;5092618;28;20038;-71
2022/09/16 09:49:07;;;;;;;11.95;4.95;;;;;;;32.38;62.26;99334.03;5093940;28;20031;-69
2022/09/16 09:51:58;;;;;;;11.68;5.60;;;;;;;33.51;60.03;99319.97;5093642;28;20038;-70
2022/09/16 09:54:24;;;;;;;14.57;4.45;;;;;;;32.42;53.90;99302.84;5093474;28;20023;-71
2022/09/16 09:56:54;;;;;;;14.52;4.60;;;;;;;33.35;55.67;99320.38;5093452;28;20032;-72
2022/09/16 09:59:36;;;;;;;20.67;4.72;;;;;;;33.28;58.51;99289.53;5093677;28;20024;-72
2022/09/16 10:02:02;;;;;;;12.35;3.75;;;;;;;33.83;52.28;99288.19;5093587;28;20114;-71
2022/09/16 10:04:36;;;;;;;12.77;4.18;;;;;;;33.85;53.30;99314.41;5092646;28;20116;-71
2022/09/16 10:07:04;;;;;;;16.52;4.75;;;;;;;33.88;52.95;99317.44;5092375;28;20468;-71
2022/09/16 10:09:31;;;;;;;13.23;3.97;;;;;;;34.47;50.80;99305.78;5092279;28;20036;-71
2022/09/16 10:11:58;;;;;;;16.30;4.50;;;;;;;34.28;50.79;99296.16;5093175;28;20028;-71
2022/09/16 10:14:26;;;;;;;14.43;4.25;;;;;;;33.89;48.46;99297.13;5091995;28;20020;-71
2022/09/16 10:16:52;;;;;;;16.13;4.18;;;;;;;34.27;49.36;99305.13;5091446;28;20028;-74
2022/09/16 10:19:21;;;;;;;11.43;4.35;;;;;;;34.51;47.98;99307.00;5093443;28;20079;-72
2022/09/16 10:22:06;;;;;;;17.13;4.05;;;;;;;33.68;48.85;99300.84;5093246;28;20512;-75
2022/09/16 10:24:37;;;;;;;16.02;4.63;;;;;;;34.51;47.09;99268.19;5091424;28;20035;-71
2022/09/16 10:27:22;;;;;;;17.45;4.40;;;;;;;34.90;44.65;99282.97;5091620;28;20455;-71
2022/09/16 10:30:05;;;;;;;14.02;3.97;;;;;;;35.55;43.53;99286.84;5091824;28;20565;-72
2022/09/16 10:32:39;;;;;;;15.85;4.28;;;;;;;35.27;48.44;99278.56;5092966;28;20035;-71
2022/09/16 10:35:08;;;;;;;16.40;4.07;;;;;;;35.60;43.53;99264.00;5091309;28;20051;-72
2022/09/16 10:37:35;;;;;;;18.63;4.30;;;;;;;34.69;41.96;99255.06;5092403;28;20494;-71
2022/09/16 10:40:03;;;;;;;21.90;4.57;;;;;;;34.49;39.96;99213.97;5091574;28;20032;-71
2022/09/16 10:42:29;;;;;;;23.20;4.50;;;;;;;34.82;41.42;99251.50;5092709;28;20028;-71
2022/09/16 10:45:03;;;;;;;16.83;4.22;;;;;;;35.40;42.33;99276.59;5091096;28;20028;-71
2022/09/16 10:47:32;;;;;;;14.27;4.40;;;;;;;35.06;42.34;99258.66;5091265;28;20024;-71
2022/09/16 10:50:03;;;;;;;14.35;3.90;;;;;;;35.82;39.94;99243.16;5092322;28;20106;-72
2022/09/16 10:52:41;;;;;;;16.05;3.90;;;;;;;35.61;39.82;99262.16;5091108;28;20031;-72
2022/09/16 10:55:31;;;;;;;14.98;4.43;;;;;;;35.98;40.95;99257.66;5092555;28;20028;-71
2022/09/16 10:58:15;;;;;;;20.23;3.80;;;;;;;35.66;39.70;99259.66;5092866;28;20107;-71
2022/09/16 11:00:57;;;;;;;19.38;3.55;;;;;;;35.77;38.72;99221.03;5091205;28;20051;-72
2022/09/16 11:03:50;;;;;;;20.60;3.85;;;;;;;36.00;39.21;99247.63;5091045;28;20028;-72
2022/09/16 11:06:15;;;;;;;17.38;4.30;;;;;;;35.48;39.95;99247.22;5091019;28;20035;-74
2022/09/16 11:08:59;;;;;;;22.53;4.77;;;;;;;35.06;38.76;99252.53;5090708;28;20024;-72
2022/09/16 11:12:08;;;;;;;16.63;4.20;;;;;;;35.02;39.67;99249.53;5092440;28;20373;-71
2022/09/16 11:14:59;;;;;;;21.50;4.22;;;;;;;34.69;39.56;99244.50;5013044;28;20037;-71
2022/09/16 11:17:47;;;;;;;16.33;3.70;;;;;;;35.39;38.04;99234.50;5090628;28;20118;-71
2022/09/16 11:20:38;;;;;;;18.90;4.38;;;;;;;35.77;38.23;99229.78;5091648;28;20060;-70
2022/09/16 11:23:22;;;;;;;18.15;3.75;;;;;;;36.08;37.10;99223.50;5064059;28;20105;-71
2022/09/16 11:26:04;;;;;;;17.35;3.75;;;;;;;35.70;36.60;99218.47;5090784;28;20032;-72
2022/09/16 11:29:24;;;;;;;20.05;4.13;;;;;;;36.23;36.84;99208.78;5090770;28;20028;-72
2022/09/16 11:32:17;;;;;;;20.73;4.15;;;;;;;35.87;37.20;99205.44;5066900;28;20032;-71
2022/09/16 11:35:16;;;;;;;22.08;3.38;;;;;;;35.04;38.02;99207.81;5091781;28;20042;-72
2022/09/16 11:37:56;;;;;;;15.43;3.72;;;;;;;34.88;37.68;99214.44;5091772;28;20020;-72
2022/09/16 11:40:45;;;;;;;15.80;3.78;;;;;;;34.49;36.70;99164.59;5090189;28;20112;-73
2022/09/16 11:43:38;;;;;;;18.25;4.60;;;;;;;34.87;37.76;99198.78;5091595;28;20472;-72
2022/09/16 11:46:07;;;;;;;19.48;4.15;;;;;;;34.97;38.75;99190.38;5090177;28;20119;-72